Latest Weather Observations for Batchelor

IDD60801

Issued at 6:01 pm CST Tuesday 27 September 2016 (issued every 30 minutes, with the page automatically refreshed every 10 minutes)

About weather observations | Map of weather stations | Latest weather observations for NT | Other Formats
Station Details ID: 014272 Name: BATCHELOR AIRPORT Lat: -13.05 Lon: 131.03 Height: 104.0 m
Data from the previous 72 hours. | See also: Recent months at Batchelor
Date/Time
CST
Temp
°C
App
Temp
°C
Dew
Point
°C
Rel
Hum
%
Delta-T
°C
Wind Press
QNH
hPa
Press
MSL
hPa
Rain since
9am
mm
Dir  Spd
km/h
Gust
km/h
Spd
kts
Gust
kts
27/06:00pm 24.9 26.0 22.4 86 1.7 WNW 20 32 11 17 1008.9 1008.2 25.2
27/05:52pm 26.7 29.7 23.4 82 2.3 W 13 30 7 16 1008.7 1008.0 13.4
27/05:30pm 31.8 34.4 21.9 55 6.7 NW 11 22 6 12 1008.0 1007.3 0.2
27/05:00pm 31.8 34.6 20.4 51 7.6 SW 6 9 3 5 1007.4 1006.7 0.2
27/04:30pm 31.7 34.0 20.6 51 7.4 SSW 9 13 5 7 1007.4 1006.7 0.2
27/04:00pm 33.2 36.1 20.7 47 8.4 WSW 6 13 3 7 1007.5 1006.8 0.2
27/03:30pm 32.0 35.5 21.8 54 6.9 WSW 6 11 3 6 1007.7 1007.0 0.2
27/03:00pm 33.1 35.3 20.3 47 8.6 W 9 13 5 7 1008.0 1007.3 0.0
27/02:30pm 34.2 36.2 19.1 41 10.0 W 7 20 4 11 1008.2 1007.5 0.0
27/02:00pm 35.4 35.8 18.9 37 10.9 NNW 15 20 8 11 1008.5 1007.8 0.0
27/01:30pm 34.6 36.3 18.6 38 10.5 WNW 7 15 4 8 1009.0 1008.3 0.0
27/01:00pm 35.3 36.6 18.4 37 11.1 NNW 9 17 5 9 1009.5 1008.8 0.0
27/12:30pm 33.9 35.9 19.2 42 9.7 NW 7 17 4 9 1010.3 1009.6 0.0
27/12:00pm 33.8 36.3 20.2 44 9.1 WNW 7 11 4 6 1011.1 1010.5 0.0
27/11:30am 34.7 37.4 20.3 43 9.7 NNE 6 9 3 5 1011.7 1011.1 0.0
27/11:00am 32.9 35.3 20.1 47 8.5 NNW 7 17 4 9 1012.3 1011.7 0.0
27/10:30am 31.8 34.4 20.4 51 7.6 N 7 13 4 7 1012.8 1012.1 0.0
27/10:00am 31.5 34.3 20.8 53 7.2 NW 7 15 4 8 1012.9 1012.2 0.0
27/09:30am 31.2 34.4 21.7 57 6.4 WNW 7 15 4 8 1012.9 1012.2 0.0
27/09:00am 30.5 33.0 21.0 57 6.4 W 9 13 5 7 1012.9 1012.2 0.0
27/08:30am 29.6 33.6 22.8 67 4.7 NW 6 9 3 5 1012.6 1012.0 0.0
27/08:00am 27.8 32.4 23.2 76 3.2 W 4 7 2 4 1012.5 1011.9 0.0
27/07:30am 26.4 31.4 22.5 79 2.6 CALM 0 0 0 0 1012.3 1011.7 0.0
27/07:00am 23.9 28.5 21.8 88 1.4 CALM 0 0 0 0 1012.0 1011.4 0.0
27/06:30am 23.2 27.5 21.1 88 1.4 CALM 0 0 0 0 1011.8 1011.2 0.0
27/06:00am 23.2 27.6 21.3 89 1.3 CALM 0 0 0 0 1011.2 1010.6 0.0
27/05:30am 23.2 27.4 20.9 87 1.5 CALM 0 0 0 0 1011.0 1010.4 0.0
27/05:00am 23.6 28.0 21.3 87 1.5 CALM 0 0 0 0 1010.6 1009.9 0.0
27/04:30am 23.6 27.9 21.1 86 1.6 CALM 0 0 0 0 1010.3 1009.6 0.0
27/04:00am 23.8 28.1 21.1 85 1.8 CALM 0 0 0 0 1010.1 1009.4 0.0
27/03:30am 23.9 28.1 21.0 84 1.9 CALM 0 0 0 0 1009.9 1009.2 0.0
27/03:00am 24.4 28.9 21.5 84 1.9 CALM 0 0 0 0 1009.8 1009.1 0.0
27/02:30am 24.4 28.8 21.3 83 2.1 CALM 0 0 0 0 1010.0 1009.3 0.0
27/02:00am 24.7 29.0 21.2 81 2.3 CALM 0 0 0 0 1010.1 1009.4 0.0
27/01:30am 24.8 29.3 21.5 82 2.2 CALM 0 0 0 0 1010.3 1009.6 0.0
27/01:00am 25.1 29.6 21.6 81 2.3 CALM 0 0 0 0 1010.5 1009.8 0.0
27/12:30am 25.4 30.0 21.7 80 2.5 CALM 0 0 0 0 1010.8 1010.1 0.0
27/12:00am 25.7 30.2 21.6 78 2.7 CALM 0 0 0 0 1010.9 1010.2 0.0
 
Date/Time
CST
Temp
°C
App
Temp
°C
Dew
Point
°C
Rel
Hum
%
Delta-T
°C
Wind Press
QNH
hPa
Press
MSL
hPa
Rain since
9am
mm
Dir  Spd
km/h
Gust
km/h
Spd
kts
Gust
kts
26/11:30pm 26.2 30.7 21.6 76 3.1 CALM 0 0 0 0 1011.0 1010.4 0.0
26/11:00pm 26.4 30.5 21.6 75 3.2 W 2 2 1 1 1011.2 1010.6 0.0
26/10:30pm 26.8 31.3 21.6 73 3.5 CALM 0 4 0 2 1011.3 1010.7 0.0
26/10:00pm 27.1 30.9 21.6 72 3.7 W 4 4 2 2 1011.4 1010.8 0.0
26/09:30pm 27.4 31.2 21.7 71 3.8 W 4 6 2 3 1011.1 1010.5 0.0
26/09:00pm 27.7 31.5 21.7 70 4.0 W 4 6 2 3 1010.9 1010.2 0.0
26/08:30pm 28.0 31.6 22.0 70 4.1 W 6 9 3 5 1010.7 1010.0 0.0
26/08:00pm 29.0 32.9 22.5 68 4.4 W 6 9 3 5 1010.4 1009.7 0.0
26/07:30pm 29.5 32.8 22.5 66 4.8 WNW 9 13 5 7 1010.0 1009.3 0.0
26/07:00pm 29.8 32.4 22.0 63 5.3 NW 11 15 6 8 1009.7 1009.0 0.0
26/06:30pm 30.2 32.9 22.1 62 5.5 WNW 11 19 6 10 1009.2 1008.5 0.0
26/06:00pm 30.9 32.9 22.2 59 5.9 WNW 15 22 8 12 1008.8 1008.1 0.0
26/05:30pm 32.2 33.2 21.1 52 7.5 NW 17 28 9 15 1007.9 1007.2 0.0
26/05:00pm 33.0 34.0 21.8 51 7.6 NNW 19 28 10 15 1007.8 1007.1 0.0
26/04:30pm 32.6 31.8 20.8 49 7.9 NNW 26 37 14 20 1007.4 1006.7 0.0
26/04:00pm 36.5 36.1 16.1 29 13.0 E 13 19 7 10 1007.0 1006.3 0.0
26/03:30pm 35.7 37.3 17.9 35 11.6 WNW 6 9 3 5 1007.1 1006.4 0.0
26/03:00pm 35.3 37.0 18.0 36 11.3 W 6 11 3 6 1007.3 1006.6 0.0
26/02:30pm 36.5 37.8 17.1 31 12.6 WNW 6 11 3 6 1007.3 1006.6 0.0
26/02:00pm 35.6 36.4 17.3 33 11.8 NW 9 20 5 11 1008.0 1007.3 0.0
26/01:30pm 36.1 37.1 17.7 33 12.0 NNE 9 13 5 7 1008.5 1007.8 0.0
26/01:00pm 35.6 36.8 18.2 35 11.4 NE 9 19 5 10 1008.9 1008.2 0.0
26/12:30pm 35.7 38.3 20.4 40 10.3 NNW 7 15 4 8 1009.5 1008.8 0.0
26/12:00pm 34.8 37.3 21.1 44 9.3 NW 9 15 5 8 1009.9 1009.2 0.0
26/11:30am 33.9 36.4 21.0 47 8.7 WNW 9 15 5 8 1010.5 1009.8 0.0
26/11:00am 33.0 35.4 20.9 49 8.2 NW 9 15 5 8 1011.0 1010.4 0.0
26/10:30am 32.5 35.2 21.4 52 7.5 NW 9 13 5 7 1011.3 1010.7 0.0
26/10:00am 31.7 36.0 22.7 59 6.2 SSW 4 9 2 5 1011.6 1011.0 0.0
26/09:30am 30.5 34.7 23.2 65 5.0 SW 6 9 3 5 1011.7 1011.1 0.0
26/09:00am 29.8 34.2 23.5 69 4.4 WSW 6 13 3 7 1011.7 1011.1 0.0
26/08:30am 28.8 33.4 23.2 71 3.8 NE 4 7 2 4 1011.6 1011.0 0.0
26/08:00am 27.8 32.4 23.2 76 3.2 E 4 7 2 4 1011.4 1010.8 0.0
26/07:30am 26.5 30.6 23.2 82 2.3 ENE 7 9 4 5 1011.0 1010.4 0.0
26/07:00am 25.7 29.8 23.0 85 1.8 ENE 6 9 3 5 1010.5 1009.8 0.0
26/06:30am 25.6 29.6 22.7 84 2.0 NE 6 9 3 5 1009.8 1009.1 0.0
26/06:00am 25.7 30.4 22.6 83 2.1 W 2 2 1 1 1009.4 1008.7 0.0
26/05:30am 26.0 31.2 22.9 83 2.1 CALM 0 2 0 1 1008.8 1008.1 0.0
26/05:00am 25.8 31.0 22.9 84 2.0 CALM 0 0 0 0 1008.6 1007.9 0.0
26/04:30am 25.5 30.6 22.6 84 2.0 CALM 0 0 0 0 1008.4 1007.7 0.0
26/04:00am 25.2 30.1 22.3 84 2.0 CALM 0 0 0 0 1008.3 1007.6 0.0
26/03:30am 25.1 29.9 22.2 84 2.0 CALM 0 0 0 0 1008.5 1007.8 0.0
26/03:00am 25.3 29.1 22.4 84 2.0 NW 6 6 3 3 1008.6 1007.9 0.0
26/02:30am 25.4 29.5 22.3 83 2.1 WNW 4 6 2 3 1008.8 1008.1 0.0
26/02:00am 25.7 29.4 22.2 81 2.4 WNW 6 7 3 4 1009.0 1008.3 0.0
26/01:30am 26.1 29.9 22.4 80 2.5 NW 6 7 3 4 1009.3 1008.6 0.0
26/01:00am 26.3 30.1 22.4 79 2.6 WNW 6 7 3 4 1009.7 1009.0 0.0
26/12:30am 26.3 30.0 22.2 78 2.8 WNW 6 9 3 5 1010.0 1009.3 0.0
26/12:00am 26.4 29.9 21.8 76 3.1 WSW 6 7 3 4 1010.1 1009.4 0.0
 
Date/Time
CST
Temp
°C
App
Temp
°C
Dew
Point
°C
Rel
Hum
%
Delta-T
°C
Wind Press
QNH
hPa
Press
MSL
hPa
Rain since
9am
mm
Dir  Spd
km/h
Gust
km/h
Spd
kts
Gust
kts
25/11:30pm 26.8 30.1 21.8 74 3.4 W 7 9 4 5 1010.2 1009.5 0.0
25/11:00pm 26.9 30.2 21.4 72 3.7 WNW 6 7 3 4 1010.5 1009.8 0.0
25/10:30pm 27.3 30.3 21.3 69 4.0 WNW 7 11 4 6 1010.5 1009.8 0.0
25/10:00pm 27.6 30.6 21.2 68 4.3 W 7 11 4 6 1010.3 1009.6 0.0
25/09:30pm 28.0 31.1 21.1 66 4.6 W 6 9 3 5 1010.1 1009.4 0.0
25/09:00pm 28.2 31.2 21.2 65 4.7 W 7 11 4 6 1009.9 1009.2 0.0
25/08:30pm 28.6 31.7 21.4 65 4.8 W 7 13 4 7 1009.4 1008.7 0.0
25/08:00pm 29.2 32.2 21.2 62 5.4 W 7 13 4 7 1008.9 1008.2 0.0
25/07:30pm 29.7 31.7 20.8 58 5.9 W 11 17 6 9 1008.5 1007.8 0.0
25/07:00pm 30.3 32.2 20.5 55 6.5 W 11 19 6 10 1008.2 1007.5 0.0
25/06:30pm 31.4 33.0 20.7 53 7.2 WNW 13 20 7 11 1007.8 1007.1 0.0
25/06:00pm 32.6 34.6 20.8 49 7.9 W 11 17 6 9 1007.2 1006.5 0.0
25/05:30pm 33.0 35.4 20.9 49 8.2 W 9 13 5 7 1007.2 1006.5 0.0
25/05:00pm 31.9 34.2 21.4 53 7.1 WSW 11 19 6 10 1007.2 1006.5 0.0
25/04:30pm 32.4 35.0 21.9 54 7.2 W 11 19 6 10 1007.1 1006.4 0.0
25/04:00pm 32.4 34.4 21.6 53 7.3 W 13 20 7 11 1007.0 1006.3 0.0
25/03:30pm 31.8 33.1 21.6 54 6.9 W 17 28 9 15 1007.2 1006.5 0.0
25/03:00pm 33.1 35.1 22.2 52 7.5 W 15 20 8 11 1007.4 1006.7 0.0
25/02:30pm 33.5 35.3 20.3 46 8.8 WNW 11 17 6 9 1007.5 1006.8 0.0
25/02:00pm 33.1 35.3 20.3 47 8.6 W 9 15 5 8 1007.6 1006.9 0.0
25/01:30pm 33.7 35.7 20.8 46 8.7 SW 11 20 6 11 1007.9 1007.2 0.0
25/01:00pm 33.3 36.2 21.1 48 8.2 WNW 7 13 4 7 1008.6 1007.9 0.0
25/12:30pm 33.5 36.6 21.0 48 8.5 SSW 6 13 3 7 1009.1 1008.4 0.0
25/12:00pm 34.0 37.3 21.8 49 8.3 NW 7 13 4 7 1009.6 1008.9 0.0
25/11:30am 32.9 35.4 21.1 50 8.0 NNW 9 15 5 8 1010.2 1009.5 0.0
25/11:00am 32.7 35.5 21.5 51 7.6 NW 9 15 5 8 1010.6 1009.9 0.0
25/10:30am 31.0 34.5 21.8 58 6.2 WNW 6 9 3 5 1010.7 1010.0 0.0
25/10:00am 31.0 34.6 22.0 58 6.1 W 6 11 3 6 1010.7 1010.0 0.0
25/09:30am 30.3 33.7 22.7 64 5.2 SW 9 15 5 8 1010.5 1009.8 0.0
25/09:00am 29.3 32.9 23.0 69 4.3 SW 9 15 5 8 1010.4 1009.7 0.0
25/08:30am 28.2 31.4 23.1 74 3.5 WSW 11 15 6 8 1010.1 1009.4 0.0
25/08:00am 27.3 31.7 23.5 80 2.6 SW 6 11 3 6 1010.0 1009.3 0.0
25/07:30am 25.1 30.8 23.7 92 1.0 CALM 0 0 0 0 1009.8 1009.1 0.0
25/07:00am 23.7 28.8 22.7 94 0.7 CALM 0 0 0 0 1009.6 1008.9 0.0
25/06:30am 23.6 28.5 22.4 93 0.8 CALM 0 0 0 0 1009.3 1008.6 0.0
25/06:00am 23.8 28.9 22.6 93 0.8 CALM 0 0 0 0 1009.1 1008.4 0.0
25/05:30am 24.2 29.4 22.8 92 0.9 CALM 0 0 0 0 1008.9 1008.2 0.0
25/05:00am 24.5 29.8 23.1 92 1.0 CALM 0 0 0 0 1008.7 1008.0 0.0
25/04:30am 24.2 29.3 22.6 91 1.1 CALM 0 2 0 1 1008.5 1007.8 0.0
25/04:00am 24.6 29.8 22.8 90 1.2 CALM 0 0 0 0 1008.4 1007.7 0.0
25/03:30am 25.0 30.4 23.2 90 1.2 CALM 0 0 0 0 1008.2 1007.5 0.0
25/03:00am 25.0 29.6 23.2 90 1.2 WSW 4 4 2 2 1008.2 1007.5 0.0
25/02:30am 25.2 29.8 23.1 88 1.4 WSW 4 6 2 3 1008.5 1007.8 0.0
25/02:00am 25.3 30.6 23.0 87 1.6 CALM 0 0 0 0 1008.9 1008.2 0.0
25/01:30am 25.5 30.8 23.0 86 1.7 CALM 0 0 0 0 1009.1 1008.4 0.0
25/01:00am 25.6 30.9 23.1 86 1.7 CALM 0 0 0 0 1009.2 1008.5 0.0
25/12:30am 25.7 30.3 23.2 86 1.7 WSW 4 6 2 3 1009.5 1008.8 0.0
25/12:00am 25.9 30.4 23.0 84 2.0 W 4 6 2 3 1009.7 1009.0 0.0
 
Date/Time
CST
Temp
°C
App
Temp
°C
Dew
Point
°C
Rel
Hum
%
Delta-T
°C
Wind Press
QNH
hPa
Press
MSL
hPa
Rain since
9am
mm
Dir  Spd
km/h
Gust
km/h
Spd
kts
Gust
kts
24/11:30pm 25.8 29.7 22.5 82 2.2 W 6 9 3 5 1010.0 1009.3 0.0
24/11:00pm 26.0 30.1 22.3 80 2.5 W 4 6 2 3 1010.2 1009.5 0.0
24/10:30pm 26.1 30.2 22.2 79 2.6 W 4 7 2 4 1010.2 1009.5 0.0
24/10:00pm 26.2 30.1 21.8 77 2.9 NW 4 6 2 3 1010.3 1009.6 0.0
24/09:30pm 26.3 30.4 21.5 75 3.2 NW 2 4 1 2 1010.0 1009.3 0.0
24/09:00pm 26.4 30.4 21.4 74 3.3 WNW 2 6 1 3 1009.8 1009.1 0.0
24/08:30pm 26.3 30.3 21.3 74 3.3 WNW 2 4 1 2 1009.3 1008.6 0.0
24/08:00pm 26.4 30.1 21.4 74 3.3 WNW 4 6 2 3 1008.8 1008.1 0.0
24/07:30pm 26.4 30.3 21.8 76 3.1 WSW 4 6 2 3 1008.5 1007.8 0.0
24/07:00pm 26.7 29.7 21.2 72 3.7 W 7 13 4 7 1008.2 1007.5 0.0
24/06:30pm 27.4 30.4 21.2 69 4.1 NW 7 15 4 8 1008.3 1007.6 0.0

Other Formats:

Comma delimited format used in spreadsheet applications
http://www.bom.gov.au/fwo/IDD60801/IDD60801.94125.axf

JavaScript Object Notation format (JSON) in row-major order
http://www.bom.gov.au/fwo/IDD60801/IDD60801.94125.json